Time;durP1;ratioP1;P1;durP2;ratioP2;P2;SDS_P1;SDS_P2;PMS_P1;PMS_P2;Temp;Humidity;BMP_temperature;BMP_pressure;BME280_temperature;BME280_humidity;BME280_pressure;Samples;Min_cycle;Max_cycle;Signal;HPM_P1;HPM_P2
2021/10/06 00:02:21;;;;;;;8.57;2.05;;;;;;;11.47;77.19;100703.63;5111236;28;20506;-63
2021/10/06 00:04:47;;;;;;;6.57;1.70;;;;;;;11.41;77.14;100698.16;5096571;27;20050;-64
2021/10/06 00:07:14;;;;;;;9.60;2.13;;;;;;;11.41;77.81;100701.63;5112505;28;20046;-64
2021/10/06 00:09:41;;;;;;;6.32;1.80;;;;;;;11.46;77.20;100707.28;5111188;28;20406;-63
2021/10/06 00:12:08;;;;;;;10.43;2.00;;;;;;;11.48;77.12;100707.97;5112796;28;20039;-64
2021/10/06 00:14:34;;;;;;;7.32;1.80;;;;;;;11.39;77.23;100711.59;5112240;28;20108;-64
2021/10/06 00:17:04;;;;;;;6.53;1.90;;;;;;;11.56;76.65;100714.31;5112399;28;20078;-64
2021/10/06 00:19:31;;;;;;;9.77;2.30;;;;;;;11.57;76.16;100706.16;5112337;28;20046;-64
2021/10/06 00:21:57;;;;;;;9.07;2.13;;;;;;;11.46;76.80;100706.44;5112282;28;20411;-64
2021/10/06 00:24:25;;;;;;;8.88;2.10;;;;;;;11.51;76.31;100712.97;5099492;28;20039;-63
2021/10/06 00:26:52;;;;;;;6.90;2.08;;;;;;;11.52;76.34;100719.09;5111880;28;20049;-64
2021/10/06 00:29:19;;;;;;;9.43;2.10;;;;;;;11.39;76.58;100719.56;5112408;28;20055;-64
2021/10/06 00:31:46;;;;;;;10.60;2.42;;;;;;;11.33;76.82;100715.72;5111848;28;20044;-64
2021/10/06 00:34:13;;;;;;;10.15;1.95;;;;;;;11.33;76.65;100714.84;5109165;28;20051;-63
2021/10/06 00:36:40;;;;;;;7.90;1.98;;;;;;;11.22;77.99;100715.16;5111651;28;20047;-63
2021/10/06 00:39:06;;;;;;;9.48;2.17;;;;;;;11.27;77.21;100715.50;5112114;28;20050;-64
2021/10/06 00:41:33;;;;;;;8.07;2.03;;;;;;;11.23;77.36;100716.81;5112213;28;20404;-63
2021/10/06 00:44:00;;;;;;;7.63;1.80;;;;;;;11.25;77.19;100720.97;5112345;28;20032;-64
2021/10/06 00:46:27;;;;;;;5.43;1.90;;;;;;;11.22;77.08;100715.16;5111127;28;20043;-64
2021/10/06 00:48:54;;;;;;;6.68;1.83;;;;;;;11.18;77.34;100711.97;5112110;28;20040;-64
2021/10/06 00:51:21;;;;;;;9.98;2.20;;;;;;;11.17;77.66;100720.94;5111050;28;20040;-63
2021/10/06 00:53:48;;;;;;;10.75;2.17;;;;;;;11.11;78.00;100726.88;5112064;28;20428;-64
2021/10/06 00:56:15;;;;;;;8.80;2.10;;;;;;;11.16;77.79;100731.72;5110915;28;20353;-64
2021/10/06 00:58:41;;;;;;;10.10;2.00;;;;;;;11.08;78.61;100729.88;5112073;28;20047;-63
2021/10/06 01:01:08;;;;;;;14.68;2.25;;;;;;;11.20;77.37;100733.06;5112025;28;20047;-64
2021/10/06 01:03:36;;;;;;;10.93;1.90;;;;;;;11.19;77.62;100734.91;5111759;28;20042;-65
2021/10/06 01:06:03;;;;;;;9.70;2.38;;;;;;;11.23;77.25;100738.06;5110374;28;20377;-64
2021/10/06 01:08:30;;;;;;;10.73;2.90;;;;;;;11.17;77.43;100744.84;5111333;28;20074;-63
2021/10/06 01:10:57;;;;;;;15.70;2.35;;;;;;;11.15;77.45;100749.44;5130505;28;20035;-63
2021/10/06 01:13:23;;;;;;;15.07;2.10;;;;;;;11.23;77.08;100751.34;5132161;28;20043;-63
2021/10/06 01:15:51;;;;;;;16.58;2.40;;;;;;;11.10;78.10;100747.28;5132881;27;20035;-63
2021/10/06 01:18:19;;;;;;;15.98;2.63;;;;;;;11.19;77.22;100752.63;5115137;28;20040;-63
2021/10/06 01:20:46;;;;;;;13.18;3.55;;;;;;;11.09;77.37;100750.09;5132136;28;20129;-63
2021/10/06 01:23:15;;;;;;;12.55;2.20;;;;;;;11.10;78.00;100754.44;5114783;27;20044;-64
2021/10/06 01:25:42;;;;;;;11.63;2.50;;;;;;;11.09;77.74;100755.41;5111161;28;20036;-63
2021/10/06 01:28:09;;;;;;;11.02;2.30;;;;;;;11.03;78.19;100761.34;5102363;28;20122;-63
2021/10/06 01:30:36;;;;;;;10.70;2.30;;;;;;;11.05;nan;100754.88;5096907;28;20043;-64
2021/10/06 01:33:03;;;;;;;13.32;3.03;;;;;;;11.08;77.93;100761.72;5092899;28;20408;-64
2021/10/06 01:35:30;;;;;;;13.68;2.65;;;;;;;11.03;77.94;100774.63;5109181;28;20027;-64
2021/10/06 01:37:58;;;;;;;10.68;2.60;;;;;;;10.98;78.23;100759.16;5113849;28;20055;-63
2021/10/06 01:40:25;;;;;;;9.90;2.47;;;;;;;11.03;78.12;100770.13;5114142;28;20042;-64
2021/10/06 01:42:52;;;;;;;15.18;3.50;;;;;;;11.06;77.67;100771.63;5115843;28;20056;-64
2021/10/06 01:45:24;;;;;;;13.60;2.42;;;;;;;11.02;77.71;100779.09;5114342;28;20414;-62
2021/10/06 01:47:51;;;;;;;11.15;2.33;;;;;;;11.04;77.89;100771.81;5114386;28;20047;-62
2021/10/06 01:50:23;;;;;;;17.50;2.88;;;;;;;11.06;77.94;100776.94;5099948;28;20063;-64
2021/10/06 01:52:51;;;;;;;12.38;2.15;;;;;;;11.06;77.74;100782.25;5114445;28;20496;-64
2021/10/06 01:55:24;;;;;;;16.65;2.65;;;;;;;11.08;77.61;100777.66;5097191;28;20065;-64
2021/10/06 01:57:51;;;;;;;13.50;2.63;;;;;;;11.04;78.23;100781.59;5115475;28;20463;-64
2021/10/06 02:00:18;;;;;;;14.15;3.17;;;;;;;11.08;78.16;100781.13;5114150;28;20043;-65
2021/10/06 02:02:45;;;;;;;18.20;2.90;;;;;;;11.21;77.10;100778.06;5114122;28;20421;-64
2021/10/06 02:05:12;;;;;;;11.98;2.80;;;;;;;11.22;76.52;100782.34;5115298;28;20112;-64
2021/10/06 02:07:38;;;;;;;14.93;2.70;;;;;;;11.21;76.58;100778.06;5097676;28;20097;-64
2021/10/06 02:10:06;;;;;;;17.02;3.30;;;;;;;11.16;76.55;100774.22;5115281;28;20085;-64
2021/10/06 02:12:33;;;;;;;7.65;2.40;;;;;;;11.23;76.49;100776.06;5113811;28;20408;-63
2021/10/06 02:15:00;;;;;;;10.55;3.13;;;;;;;11.15;76.44;100765.38;5115027;28;20067;-64
2021/10/06 02:17:27;;;;;;;17.83;3.10;;;;;;;11.24;76.36;100772.44;5114145;28;20050;-64
2021/10/06 02:19:53;;;;;;;10.20;2.80;;;;;;;11.20;76.45;100767.59;5115540;28;20051;-64
2021/10/06 02:22:20;;;;;;;12.57;3.22;;;;;;;11.19;77.01;100777.38;5115381;28;20495;-64
2021/10/06 02:24:47;;;;;;;14.88;3.00;;;;;;;11.21;76.83;100782.53;5115459;28;20047;-64
2021/10/06 02:27:14;;;;;;;14.30;2.92;;;;;;;11.29;76.93;100780.75;5115115;28;20514;-64
2021/10/06 02:29:40;;;;;;;16.70;2.92;;;;;;;11.29;76.22;100785.22;5115367;28;20044;-64
2021/10/06 02:32:07;;;;;;;10.75;2.47;;;;;;;11.11;76.49;100780.81;5113765;28;20051;-64
2021/10/06 02:34:34;;;;;;;13.27;3.00;;;;;;;11.23;76.20;100783.22;5113164;28;20105;-64
2021/10/06 02:37:01;;;;;;;13.27;3.10;;;;;;;11.23;76.31;100781.38;5114932;28;20114;-64
2021/10/06 02:39:28;;;;;;;20.27;3.03;;;;;;;11.26;76.29;100793.50;5114268;28;20073;-64
2021/10/06 02:41:54;;;;;;;13.40;2.72;;;;;;;11.26;76.38;100791.69;5114910;28;20043;-64
2021/10/06 02:44:21;;;;;;;10.82;3.20;;;;;;;11.29;75.97;100788.72;5113863;28;20088;-64
2021/10/06 02:46:48;;;;;;;13.55;2.65;;;;;;;11.30;75.82;100792.22;5113327;28;20040;-64
2021/10/06 02:49:15;;;;;;;11.13;2.80;;;;;;;11.23;76.08;100796.50;5096884;28;20046;-64
2021/10/06 02:51:42;;;;;;;17.23;3.45;;;;;;;11.22;76.68;100792.97;5114860;28;20127;-64
2021/10/06 02:54:08;;;;;;;16.77;2.60;;;;;;;11.19;76.16;100793.31;5114961;28;20039;-64
2021/10/06 02:56:35;;;;;;;15.90;2.90;;;;;;;11.22;75.92;100794.81;5114688;28;20555;-64
2021/10/06 02:59:02;;;;;;;13.68;2.72;;;;;;;11.30;75.79;100792.22;5115041;28;20070;-64
2021/10/06 03:01:29;;;;;;;13.48;2.75;;;;;;;11.31;75.48;100785.91;5114687;28;20403;-64
2021/10/06 03:03:55;;;;;;;17.98;3.78;;;;;;;11.15;76.59;100794.59;5113316;28;20047;-64
2021/10/06 03:06:22;;;;;;;11.00;2.50;;;;;;;11.25;75.53;100803.28;5111925;28;20404;-65
2021/10/06 03:08:49;;;;;;;14.48;2.90;;;;;;;11.18;76.72;100798.78;5114027;28;20035;-64
2021/10/06 03:11:15;;;;;;;11.30;2.72;;;;;;;11.23;76.10;100802.63;5124871;27;20381;-64
2021/10/06 03:13:42;;;;;;;16.35;2.85;;;;;;;11.07;76.44;100792.72;5135169;27;20107;-64
2021/10/06 03:16:09;;;;;;;14.50;2.58;;;;;;;11.11;76.26;100796.75;5135077;27;20118;-64
2021/10/06 03:18:35;;;;;;;14.30;3.38;;;;;;;11.18;75.48;100796.13;5133267;27;20043;-64
2021/10/06 03:21:02;;;;;;;12.27;2.65;;;;;;;11.16;75.99;100790.13;5134855;27;20046;-64
2021/10/06 03:23:29;;;;;;;17.48;2.88;;;;;;;11.15;75.64;100791.94;5134739;27;20500;-64
2021/10/06 03:25:56;;;;;;;13.85;2.60;;;;;;;11.05;76.14;100799.19;5133481;27;20039;-64
2021/10/06 03:28:23;;;;;;;13.55;2.53;;;;;;;11.14;75.44;100799.06;5134693;27;20046;-64
2021/10/06 03:30:50;;;;;;;14.73;2.80;;;;;;;11.05;76.40;100797.38;5133162;27;20392;-64
2021/10/06 03:33:16;;;;;;;12.40;2.40;;;;;;;11.05;76.07;100797.38;5132774;27;20061;-64
2021/10/06 03:35:43;;;;;;;13.93;2.70;;;;;;;11.18;75.41;100809.41;5134658;27;20039;-64
2021/10/06 03:38:10;;;;;;;13.80;2.90;;;;;;;11.12;75.62;100811.69;5134517;27;20483;-64
2021/10/06 03:40:37;;;;;;;10.70;2.42;;;;;;;11.25;75.31;100803.28;5133916;27;20406;-64
2021/10/06 03:43:03;;;;;;;9.68;2.47;;;;;;;11.24;75.13;100808.75;5134390;27;20039;-64
2021/10/06 03:45:30;;;;;;;10.48;2.88;;;;;;;11.25;75.60;100811.25;5132752;27;20043;-64
2021/10/06 03:47:57;;;;;;;13.50;2.95;;;;;;;11.25;75.17;100819.22;5115758;27;20035;-64
2021/10/06 03:50:23;;;;;;;11.75;2.90;;;;;;;11.18;74.86;100806.75;5131480;27;20057;-64
2021/10/06 03:52:50;;;;;;;12.38;3.03;;;;;;;11.20;74.80;100818.84;5098441;28;20036;-64
2021/10/06 03:55:17;;;;;;;11.60;2.53;;;;;;;11.18;75.16;100825.31;5101467;28;20404;-64
2021/10/06 03:57:44;;;;;;;12.18;2.88;;;;;;;11.16;75.63;100825.47;5113099;28;20101;-64
2021/10/06 04:00:12;;;;;;;12.98;2.65;;;;;;;11.28;74.49;100826.88;5111702;28;20063;-64
2021/10/06 04:02:40;;;;;;;8.95;2.90;;;;;;;11.18;75.29;100820.84;5112502;28;20112;-64
2021/10/06 04:05:08;;;;;;;11.98;2.65;;;;;;;11.27;74.38;100827.03;5113208;28;20042;-64
2021/10/06 04:07:35;;;;;;;19.95;2.70;;;;;;;11.20;74.80;100829.47;5091393;28;20052;-64
2021/10/06 04:10:03;;;;;;;11.10;2.50;;;;;;;11.23;74.70;100829.19;5111829;28;20043;-64
2021/10/06 04:12:30;;;;;;;13.43;2.83;;;;;;;11.35;74.17;100835.06;5097873;28;20119;-64
2021/10/06 04:14:57;;;;;;;17.15;2.80;;;;;;;11.24;74.63;100841.47;5111313;28;20049;-64
2021/10/06 04:17:24;;;;;;;14.05;2.90;;;;;;;11.22;74.89;100835.47;5111549;28;20508;-64
2021/10/06 04:19:51;;;;;;;16.23;2.72;;;;;;;11.29;74.04;100841.00;5112763;28;20043;-64
2021/10/06 04:22:18;;;;;;;19.17;2.58;;;;;;;11.20;74.34;100839.28;5112680;28;20043;-64
2021/10/06 04:24:45;;;;;;;8.73;2.13;;;;;;;11.20;74.40;100842.75;5112440;28;20389;-64
2021/10/06 04:27:11;;;;;;;13.73;2.58;;;;;;;11.23;74.26;100837.16;5111136;28;20047;-64
2021/10/06 04:29:38;;;;;;;14.70;2.67;;;;;;;11.23;74.36;100841.63;5098262;28;20048;-66
2021/10/06 04:32:05;;;;;;;13.80;2.65;;;;;;;11.14;74.66;100836.25;5110918;28;20523;-64
2021/10/06 04:34:32;;;;;;;11.00;2.63;;;;;;;11.22;74.28;100847.91;5112937;28;20048;-64
2021/10/06 04:36:59;;;;;;;13.77;2.95;;;;;;;11.27;74.16;100850.94;5110899;28;20054;-64
2021/10/06 04:39:26;;;;;;;12.32;2.72;;;;;;;11.29;73.79;100854.28;5101267;28;20051;-64
2021/10/06 04:41:53;;;;;;;15.82;2.75;;;;;;;11.23;74.50;100858.38;5107241;28;20377;-64
2021/10/06 04:44:20;;;;;;;15.38;3.08;;;;;;;11.19;74.59;100859.69;5112655;28;20035;-64
2021/10/06 04:46:47;;;;;;;10.18;2.60;;;;;;;11.22;74.39;100867.31;5111218;28;20036;-64
2021/10/06 04:49:16;;;;;;;15.27;3.47;;;;;;;11.12;74.77;100850.69;5094808;28;22020;-64
2021/10/06 04:51:43;;;;;;;11.90;2.30;;;;;;;11.20;74.07;100861.34;5112439;28;20036;-64
2021/10/06 04:54:09;;;;;;;11.35;2.70;;;;;;;11.20;74.66;100860.53;5111258;28;20039;-64
2021/10/06 04:56:37;;;;;;;18.83;2.70;;;;;;;11.21;74.43;100863.03;5111107;28;20442;-64
2021/10/06 04:59:03;;;;;;;10.40;2.40;;;;;;;11.29;74.16;100862.25;5111158;28;20488;-64
2021/10/06 05:01:30;;;;;;;17.30;2.88;;;;;;;11.29;74.72;100865.72;5111403;28;20046;-64
2021/10/06 05:03:57;;;;;;;15.75;2.95;;;;;;;11.37;74.00;100870.28;5112116;28;20043;-64
2021/10/06 05:06:24;;;;;;;14.40;3.03;;;;;;;11.32;73.88;100865.41;5110803;28;20028;-65
2021/10/06 05:08:50;;;;;;;11.43;2.50;;;;;;;11.27;74.03;100861.56;5111848;28;20039;-64
2021/10/06 05:11:19;;;;;;;12.68;3.03;;;;;;;11.28;73.57;100861.41;5111515;28;20043;-64
2021/10/06 05:13:45;;;;;;;14.23;2.60;;;;;;;11.24;74.29;100859.22;5096268;28;20044;-64
2021/10/06 05:16:12;;;;;;;14.50;2.80;;;;;;;11.26;74.10;100865.19;5095757;28;20040;-64
2021/10/06 05:18:39;;;;;;;14.77;2.40;;;;;;;11.34;73.46;100870.56;5078042;28;20519;-64
2021/10/06 05:21:05;;;;;;;13.07;2.70;;;;;;;11.32;72.92;100867.25;5098721;28;20479;-64
2021/10/06 05:23:32;;;;;;;13.60;2.35;;;;;;;11.33;73.24;100871.56;5115490;28;20050;-64
2021/10/06 05:25:59;;;;;;;12.52;2.40;;;;;;;11.38;73.03;100881.72;5116382;28;20059;-64
2021/10/06 05:28:26;;;;;;;9.77;2.10;;;;;;;11.35;72.56;100874.91;5114992;28;20039;-64
2021/10/06 05:30:55;;;;;;;9.27;2.35;;;;;;;11.34;72.90;100881.19;5097658;28;20055;-64
2021/10/06 05:33:22;;;;;;;13.48;2.30;;;;;;;11.34;72.84;100873.22;5114639;28;20130;-64
2021/10/06 05:35:49;;;;;;;14.70;2.50;;;;;;;11.36;72.77;100887.19;5114736;28;20072;-64
2021/10/06 05:38:16;;;;;;;11.30;2.17;;;;;;;11.44;72.59;100881.09;5116324;28;20556;-64
2021/10/06 05:40:43;;;;;;;10.15;2.17;;;;;;;11.34;72.79;100892.66;5115758;28;20040;-64
2021/10/06 05:43:12;;;;;;;8.95;2.40;;;;;;;11.30;73.49;100891.31;5107685;28;20430;-64
2021/10/06 05:45:39;;;;;;;14.13;2.67;;;;;;;11.32;73.57;100889.31;5107306;28;20036;-64
2021/10/06 05:48:06;;;;;;;10.88;2.53;;;;;;;11.34;73.21;100892.66;5097075;28;20484;-64
2021/10/06 05:50:34;;;;;;;8.95;2.78;;;;;;;11.26;74.12;100889.94;5096190;28;20076;-65
2021/10/06 05:53:03;;;;;;;8.63;2.42;;;;;;;11.42;72.92;100899.84;5109922;28;20496;-65
2021/10/06 05:55:30;;;;;;;11.48;2.90;;;;;;;11.39;72.63;100889.53;5099575;28;20451;-63
2021/10/06 05:57:57;;;;;;;9.88;2.72;;;;;;;11.31;73.42;100894.78;5094931;28;20171;-64
2021/10/06 06:00:24;;;;;;;11.85;2.58;;;;;;;11.40;72.97;100891.19;5094954;28;20040;-64
2021/10/06 06:02:51;;;;;;;11.85;3.25;;;;;;;11.39;73.56;100897.50;5093970;28;20108;-64
2021/10/06 06:05:19;;;;;;;9.43;2.35;;;;;;;11.41;73.39;100897.34;5095375;28;20043;-64
2021/10/06 06:07:46;;;;;;;15.15;2.55;;;;;;;11.40;73.86;100898.34;5093431;28;20040;-64
2021/10/06 06:10:14;;;;;;;12.88;3.10;;;;;;;11.36;75.62;100897.81;5094131;28;20052;-64
2021/10/06 06:12:42;;;;;;;9.80;2.22;;;;;;;11.20;77.42;100895.03;5107613;28;20130;-64
2021/10/06 06:15:10;;;;;;;13.77;3.00;;;;;;;11.12;77.42;100906.44;5114498;28;20556;-64
2021/10/06 06:17:37;;;;;;;15.20;3.47;;;;;;;11.12;77.52;100901.94;5102163;28;20044;-64
2021/10/06 06:20:08;;;;;;;15.45;2.85;;;;;;;11.13;78.17;100906.28;5084605;28;20094;-66
2021/10/06 06:22:35;;;;;;;12.02;2.88;;;;;;;11.11;76.84;100916.22;5094479;28;20047;-64
2021/10/06 06:25:03;;;;;;;12.98;2.80;;;;;;;11.01;78.41;100901.38;5106214;28;20044;-64
2021/10/06 06:27:30;;;;;;;15.00;2.72;;;;;;;11.03;78.40;100915.31;5113489;28;20541;-64
2021/10/06 06:29:57;;;;;;;12.48;2.83;;;;;;;11.00;78.81;100915.63;5100610;28;20043;-64
2021/10/06 06:32:24;;;;;;;19.02;2.97;;;;;;;10.93;79.42;100918.88;5113217;28;20046;-64
2021/10/06 06:34:51;;;;;;;17.65;3.05;;;;;;;10.78;80.55;100919.56;5110728;28;20048;-64
2021/10/06 06:37:18;;;;;;;17.27;3.03;;;;;;;10.68;81.88;100917.00;5104584;27;20114;-64
2021/10/06 06:39:44;;;;;;;13.20;2.70;;;;;;;10.70;80.11;100928.28;5115212;27;20050;-65
2021/10/06 06:42:11;;;;;;;13.75;2.67;;;;;;;10.75;79.58;100928.63;5114723;27;20089;-64
2021/10/06 06:44:38;;;;;;;12.52;3.20;;;;;;;10.70;81.86;100936.25;5104790;28;20445;-64
2021/10/06 06:47:05;;;;;;;16.55;2.78;;;;;;;10.73;81.58;100935.91;5114239;27;20043;-63
2021/10/06 06:49:35;;;;;;;17.58;2.65;;;;;;;10.74;82.49;100941.09;5093484;28;20085;-63
2021/10/06 06:52:07;;;;;;;13.77;4.05;;;;;;;10.66;83.35;100945.47;5132130;27;20114;-63
2021/10/06 06:54:50;;;;;;;12.50;2.50;;;;;;;10.70;82.21;100950.34;5111558;27;20047;-63
2021/10/06 06:57:26;;;;;;;12.23;2.85;;;;;;;10.67;82.82;100957.75;5107495;28;20039;-62
2021/10/06 06:59:56;;;;;;;9.63;2.70;;;;;;;10.65;83.15;100968.50;5114515;28;20047;-63
2021/10/06 07:02:30;;;;;;;15.05;3.20;;;;;;;10.56;83.94;100958.78;5113126;28;20041;-63
2021/10/06 07:05:07;;;;;;;19.77;3.20;;;;;;;10.53;85.95;100964.38;5113559;28;20126;-63
2021/10/06 07:07:43;;;;;;;11.23;2.70;;;;;;;10.50;85.23;100965.53;5104979;27;20036;-64
2021/10/06 07:10:18;;;;;;;19.10;3.20;;;;;;;10.61;84.00;100956.53;5102624;27;20061;-63
2021/10/06 07:12:45;;;;;;;8.23;2.20;;;;;;;10.56;83.13;100958.78;5127764;27;20373;-63
2021/10/06 07:15:12;;;;;;;19.35;3.53;;;;;;;10.50;85.35;100962.88;5102077;27;20066;-63
2021/10/06 07:17:39;;;;;;;13.27;2.70;;;;;;;10.54;83.14;100955.47;5113533;27;20036;-64
2021/10/06 07:20:07;;;;;;;11.40;2.28;;;;;;;10.56;82.64;100959.63;5105649;27;20077;-63
2021/10/06 07:22:34;;;;;;;10.00;2.47;;;;;;;10.45;85.12;100962.47;5111613;27;20040;-63
2021/10/06 07:25:03;;;;;;;12.27;2.63;;;;;;;10.40;84.14;100961.25;5105455;27;20072;-64
2021/10/06 07:27:31;;;;;;;14.55;2.85;;;;;;;10.54;83.38;100961.59;5114339;27;20100;-64
2021/10/06 07:30:00;;;;;;;12.25;3.08;;;;;;;10.54;83.23;100958.94;5109624;27;20047;-64
2021/10/06 07:32:27;;;;;;;20.05;2.72;;;;;;;10.53;83.34;100957.28;5108617;27;20054;-63
2021/10/06 07:34:57;;;;;;;13.75;2.67;;;;;;;10.53;81.99;100965.25;5111533;27;20049;-64
2021/10/06 07:37:24;;;;;;;11.60;2.30;;;;;;;10.63;83.36;100961.69;5110123;27;20403;-64
2021/10/06 07:39:52;;;;;;;12.38;3.13;;;;;;;10.63;83.02;100965.19;5095565;28;20390;-64
2021/10/06 07:42:19;;;;;;;13.95;2.63;;;;;;;10.68;83.22;100968.22;5115796;27;20036;-64
2021/10/06 07:44:48;;;;;;;13.02;2.47;;;;;;;10.63;83.79;100983.75;5117463;27;20275;-64
2021/10/06 07:47:15;;;;;;;16.33;2.45;;;;;;;10.71;82.29;100975.91;5113423;27;20048;-64
2021/10/06 07:49:43;;;;;;;18.95;2.95;;;;;;;10.75;81.76;100987.88;5101519;27;20138;-63
2021/10/06 07:52:10;;;;;;;14.15;3.08;;;;;;;10.74;83.62;100980.06;5108320;27;20035;-63
2021/10/06 07:54:38;;;;;;;14.60;3.00;;;;;;;10.74;81.37;100974.75;5121358;27;20089;-64
2021/10/06 07:57:05;;;;;;;11.52;2.50;;;;;;;10.64;82.50;100987.22;5103013;27;20526;-63
2021/10/06 07:59:32;;;;;;;13.48;2.92;;;;;;;10.63;82.66;100974.97;5108700;27;20119;-63
2021/10/06 08:01:59;;;;;;;8.80;2.30;;;;;;;10.69;80.35;100985.78;5110833;28;20047;-63
2021/10/06 08:04:27;;;;;;;11.75;2.67;;;;;;;10.73;81.65;100984.53;5099713;27;20089;-63
2021/10/06 08:06:53;;;;;;;13.68;2.50;;;;;;;10.75;81.16;100984.38;5121394;27;20100;-63
2021/10/06 08:09:21;;;;;;;11.07;2.35;;;;;;;10.75;80.58;100981.72;5116547;27;20093;-63
2021/10/06 08:11:49;;;;;;;12.85;2.70;;;;;;;10.78;80.67;100985.91;5106470;27;20072;-64
2021/10/06 08:14:16;;;;;;;13.73;2.47;;;;;;;10.82;80.47;100982.78;5099191;27;20040;-63
2021/10/06 08:16:42;;;;;;;13.02;2.30;;;;;;;10.82;82.32;100992.56;5114431;27;20492;-64
2021/10/06 08:19:09;;;;;;;11.93;2.10;;;;;;;10.91;79.27;100992.53;5117217;27;20042;-64
2021/10/06 08:21:36;;;;;;;14.23;2.40;;;;;;;10.89;79.55;100997.13;5082248;28;20381;-64
2021/10/06 08:24:03;;;;;;;12.38;2.50;;;;;;;10.93;78.50;101002.97;5112990;27;22022;-63
2021/10/06 08:26:30;;;;;;;12.55;2.55;;;;;;;10.90;79.51;101003.28;5113391;28;20040;-64
2021/10/06 08:28:56;;;;;;;16.13;2.75;;;;;;;10.97;78.35;101003.50;5100659;28;20577;-64
2021/10/06 08:31:23;;;;;;;13.18;2.55;;;;;;;11.11;79.15;101003.00;5097311;28;20055;-64
2021/10/06 08:33:50;;;;;;;11.68;2.25;;;;;;;11.21;78.81;101005.59;5105298;27;20123;-64
2021/10/06 08:36:17;;;;;;;9.30;2.33;;;;;;;11.22;78.50;101013.38;5107248;28;20066;-64
2021/10/06 08:38:44;;;;;;;13.15;2.60;;;;;;;11.31;77.69;101006.31;5099592;28;20043;-64
2021/10/06 08:41:12;;;;;;;13.20;2.75;;;;;;;11.12;80.31;101016.13;5101952;28;20078;-64
2021/10/06 08:43:40;;;;;;;12.75;2.13;;;;;;;11.27;76.76;101018.25;5104017;28;20043;-63
2021/10/06 08:46:07;;;;;;;10.70;2.45;;;;;;;11.19;77.99;101010.19;5113482;28;20440;-63
2021/10/06 08:48:33;;;;;;;8.02;2.40;;;;;;;11.17;77.39;101012.16;5101270;27;20499;-63
2021/10/06 08:51:00;;;;;;;13.68;2.30;;;;;;;11.28;76.97;101017.28;5108975;27;20416;-63
2021/10/06 08:53:41;;;;;;;11.63;2.40;;;;;;;11.22;76.67;101009.91;5108493;27;20048;-64
2021/10/06 08:56:08;;;;;;;15.25;2.45;;;;;;;11.32;76.49;101015.97;5113057;27;20093;-64
2021/10/06 08:58:34;;;;;;;8.68;2.33;;;;;;;11.36;76.43;101022.66;5130467;27;20047;-64
2021/10/06 09:01:01;;;;;;;13.40;2.78;;;;;;;11.41;77.08;101024.84;5117642;27;20134;-64
2021/10/06 09:03:35;;;;;;;13.25;2.45;;;;;;;11.45;76.08;101019.06;5112091;27;20539;-64
2021/10/06 09:06:07;;;;;;;8.48;2.05;;;;;;;11.41;76.75;101033.66;5091151;28;20393;-64
2021/10/06 09:08:36;;;;;;;8.65;1.92;;;;;;;11.42;75.49;101037.97;5128260;27;20042;-64
2021/10/06 09:11:06;;;;;;;10.05;2.20;;;;;;;11.40;77.53;101039.13;5111260;27;20040;-64
2021/10/06 09:13:36;;;;;;;11.88;1.92;;;;;;;11.37;77.47;101039.41;5109917;27;20552;-64
2021/10/06 09:16:03;;;;;;;10.40;2.00;;;;;;;11.37;76.06;101045.56;5116261;27;20065;-64
2021/10/06 09:18:32;;;;;;;12.95;2.28;;;;;;;11.38;78.21;101033.94;5134564;27;20453;-64
2021/10/06 09:21:04;;;;;;;12.32;3.08;;;;;;;11.54;77.21;101046.56;5108121;27;20043;-64
2021/10/06 09:23:37;;;;;;;9.65;2.15;;;;;;;11.78;76.12;101045.91;5119759;27;20534;-64
2021/10/06 09:26:08;;;;;;;9.90;2.20;;;;;;;11.87;75.41;101055.59;5097992;27;20087;-63
2021/10/06 09:28:37;;;;;;;9.88;2.03;;;;;;;11.96;76.93;101055.72;5115755;27;20057;-64
2021/10/06 09:31:10;;;;;;;7.13;1.88;;;;;;;11.84;75.62;101063.91;5096613;27;20047;-64
2021/10/06 09:33:49;;;;;;;8.70;1.98;;;;;;;11.62;77.32;101059.88;5130597;27;20035;-64
2021/10/06 09:36:25;;;;;;;9.10;2.13;;;;;;;11.76;76.91;101068.31;5110272;27;20377;-64
2021/10/06 09:38:57;;;;;;;7.18;1.77;;;;;;;11.74;77.36;101070.31;5112543;27;20035;-64
2021/10/06 09:44:11;;;;;;;8.55;1.80;;;;;;;11.56;78.75;101083.59;5127176;27;20184;-65
2021/10/06 09:47:00;;;;;;;6.03;1.83;;;;;;;11.45;80.21;101079.34;5096332;28;20120;-64
2021/10/06 09:49:29;;;;;;;12.18;1.90;;;;;;;11.36;80.56;101085.56;5106824;28;20522;-64
2021/10/06 09:52:15;;;;;;;10.88;2.13;;;;;;;11.22;80.73;101084.25;5096552;28;20047;-65
2021/10/06 09:55:06;;;;;;;9.13;2.20;;;;;;;11.23;80.06;101081.44;5086544;28;20071;-65
2021/10/06 09:57:37;;;;;;;9.60;2.45;;;;;;;11.25;81.04;101084.78;5100616;28;20127;-63
2021/10/06 10:00:08;;;;;;;8.07;2.22;;;;;;;11.24;80.80;101088.44;5072392;28;20058;-64
2021/10/06 10:02:39;;;;;;;8.68;2.38;;;;;;;11.29;81.10;101095.94;5085306;28;20474;-63
2021/10/06 10:05:07;;;;;;;10.82;2.65;;;;;;;11.32;80.19;101090.34;5098094;28;20043;-64
2021/10/06 10:07:35;;;;;;;9.93;2.10;;;;;;;11.29;80.22;101091.47;5072508;28;20048;-63
2021/10/06 10:10:04;;;;;;;9.90;2.33;;;;;;;11.39;80.20;101098.53;5089219;28;20059;-63
2021/10/06 10:12:31;;;;;;;7.40;1.92;;;;;;;11.43;80.70;101110.53;5093570;28;20039;-63
2021/10/06 10:15:00;;;;;;;11.02;1.98;;;;;;;11.56;79.88;101096.88;5101939;28;20826;-63
2021/10/06 10:17:27;;;;;;;7.60;2.25;;;;;;;11.65;78.29;101098.63;5081477;28;20040;-64
2021/10/06 10:19:59;;;;;;;8.40;2.00;;;;;;;11.61;79.81;101098.09;5107256;28;20048;-66
2021/10/06 10:22:32;;;;;;;13.35;2.15;;;;;;;11.65;78.69;101112.75;5104608;28;20048;-65
2021/10/06 10:25:15;;;;;;;9.57;1.90;;;;;;;11.53;79.55;101113.94;5093572;28;20040;-65
2021/10/06 10:28:01;;;;;;;11.73;2.20;;;;;;;11.37;81.26;101130.56;5053203;28;20042;-65
2021/10/06 10:30:30;;;;;;;5.82;1.75;;;;;;;11.24;81.54;101140.69;5074606;28;20508;-65
2021/10/06 10:32:57;;;;;;;10.05;2.00;;;;;;;11.12;82.67;101138.25;5095064;28;20859;-64
2021/10/06 10:35:39;;;;;;;7.57;1.80;;;;;;;11.26;82.93;101136.06;5099196;28;20053;-64
2021/10/06 10:38:10;;;;;;;9.07;2.40;;;;;;;11.20;82.19;101134.84;5103652;28;20078;-64
2021/10/06 10:40:42;;;;;;;7.78;1.98;;;;;;;11.26;82.13;101144.03;5103858;28;20043;-63
2021/10/06 10:43:12;;;;;;;6.60;2.05;;;;;;;11.31;82.00;101153.25;5093187;28;20078;-63
2021/10/06 10:45:47;;;;;;;9.95;2.40;;;;;;;11.34;82.97;101144.16;5085035;28;20497;-64
2021/10/06 10:48:17;;;;;;;7.80;2.25;;;;;;;11.19;83.79;101143.81;5078445;28;20064;-64
2021/10/06 10:56:41;;;;;;;8.65;2.17;;;;;;;11.19;84.60;101153.59;5083367;27;20929;-67
2021/10/06 10:59:10;;;;;;;9.63;2.38;;;;;;;11.24;84.47;101161.94;5068382;28;20123;-63
2021/10/06 11:01:41;;;;;;;7.03;2.38;;;;;;;11.28;83.63;101158.84;5063765;28;20040;-63
2021/10/06 11:04:11;;;;;;;7.53;2.25;;;;;;;11.34;83.42;101162.75;5065954;28;20112;-64
2021/10/06 11:06:40;;;;;;;7.75;2.22;;;;;;;11.36;83.64;101162.59;5069082;28;20469;-64
2021/10/06 11:09:33;;;;;;;9.65;2.72;;;;;;;11.31;84.06;101166.53;5068322;28;20049;-64
2021/10/06 11:15:20;;;;;;;6.03;2.50;;;;;;;11.41;83.80;101171.78;5109014;27;20404;-63
2021/10/06 11:18:16;;;;;;;9.13;3.05;;;;;;;11.44;83.83;101165.31;5072264;28;20089;-64
2021/10/06 11:20:53;;;;;;;8.60;2.70;;;;;;;11.39;83.60;101173.75;5096985;28;20044;-64
2021/10/06 11:23:41;;;;;;;9.15;2.72;;;;;;;11.39;83.59;101173.75;5085760;28;20032;-65
2021/10/06 11:26:12;;;;;;;10.45;2.75;;;;;;;11.36;83.98;101182.00;5092119;28;20039;-65
2021/10/06 11:28:43;;;;;;;7.90;2.50;;;;;;;11.42;83.50;101177.94;5093514;28;20416;-65
2021/10/06 11:31:11;;;;;;;11.05;2.72;;;;;;;11.40;83.00;101174.59;5087158;28;20044;-66
2021/10/06 11:33:38;;;;;;;10.43;3.10;;;;;;;11.46;83.56;101177.50;5087318;28;20453;-65
2021/10/06 11:36:10;;;;;;;16.23;3.15;;;;;;;11.54;83.15;101179.41;5094186;28;20044;-65
2021/10/06 11:38:37;;;;;;;;;;;;;;;11.62;83.43;101184.78;5087817;28;20122;-65